createdAt,value
2022-12-27T07:57:05.626Z,1.25
2022-12-27T07:58:07.143Z,1.92
2022-12-27T08:00:35.593Z,1.67
2022-12-27T08:01:55.815Z,1.48
2022-12-27T08:02:57.364Z,1.50
2022-12-27T08:03:58.739Z,1.40
2022-12-27T08:05:00.149Z,1.40
2022-12-27T08:06:01.597Z,1.65
2022-12-27T08:07:14.897Z,1.50
2022-12-27T08:08:18.383Z,1.88
2022-12-27T08:09:27.985Z,3.55
2022-12-27T08:10:29.515Z,3.50
2022-12-27T08:11:31.089Z,8.23
2022-12-27T08:12:32.675Z,22.60
2022-12-27T08:13:34.727Z,22.85
2022-12-27T08:14:36.270Z,30.98
2022-12-27T08:15:39.985Z,23.70
2022-12-27T08:16:41.379Z,2.92
2022-12-27T08:17:42.893Z,1.80
2022-12-27T08:18:44.782Z,1.10
2022-12-27T08:19:47.109Z,1.48
2022-12-27T08:20:48.942Z,1.30
2022-12-27T08:21:50.337Z,1.08
2022-12-27T08:22:51.817Z,1.30
2022-12-27T08:23:53.142Z,1.67
2022-12-27T08:24:56.117Z,1.33
2022-12-27T08:25:57.584Z,1.63
2022-12-27T08:26:58.999Z,1.40
2022-12-27T08:28:08.698Z,1.55
2022-12-27T08:29:10.066Z,1.60
2022-12-27T08:30:12.422Z,1.23
2022-12-27T08:31:14.510Z,1.20
2022-12-27T08:32:16.359Z,1.20
2022-12-27T08:33:17.851Z,1.42
2022-12-27T08:34:19.359Z,1.38
2022-12-27T08:35:51.095Z,1.20
2022-12-27T08:36:55.029Z,1.30
2022-12-27T08:37:57.170Z,2.17
2022-12-27T08:38:58.588Z,15.55
2022-12-27T08:40:02.859Z,70.63
2022-12-27T08:41:04.842Z,49.88
2022-12-27T08:42:06.336Z,3.55
2022-12-27T08:43:08.785Z,2.15
2022-12-27T08:44:10.528Z,1.73
2022-12-27T08:45:11.999Z,2.10
2022-12-27T08:46:14.186Z,1.63
2022-12-27T08:47:15.642Z,1.20
2022-12-27T08:48:17.304Z,1.85
2022-12-27T08:49:18.785Z,1.88
2022-12-27T08:50:20.192Z,1.70
2022-12-27T08:51:32.799Z,1.60
2022-12-27T08:52:39.972Z,1.50
2022-12-27T08:53:41.459Z,1.90
2022-12-27T08:54:42.803Z,1.63
2022-12-27T08:55:44.182Z,1.80
2022-12-27T08:56:45.649Z,1.83
2022-12-27T08:57:47.015Z,1.85
2022-12-27T08:58:49.359Z,1.80
2022-12-27T08:59:50.731Z,1.70
2022-12-27T09:00:52.264Z,2.45
2022-12-27T09:01:53.688Z,1.70
2022-12-27T09:02:55.533Z,2.00
2022-12-27T09:03:57.060Z,1.42
2022-12-27T09:04:58.442Z,1.85
2022-12-27T09:06:15.666Z,1.83
2022-12-27T09:07:17.074Z,1.85
2022-12-27T09:08:18.442Z,1.67
2022-12-27T09:09:19.828Z,2.05
2022-12-27T09:10:23.419Z,1.83
2022-12-27T09:11:27.664Z,1.95
2022-12-27T09:12:29.034Z,2.28
2022-12-27T09:13:30.409Z,2.40
2022-12-27T09:14:31.949Z,2.03
2022-12-27T09:15:33.334Z,2.53
2022-12-27T09:16:35.889Z,2.40
2022-12-27T09:17:37.309Z,1.98
2022-12-27T09:18:39.645Z,2.00
2022-12-27T09:19:41.045Z,2.03
2022-12-27T09:20:42.489Z,2.05
2022-12-27T09:21:44.115Z,1.90
2022-12-27T09:22:45.592Z,2.10
2022-12-27T09:23:47.735Z,2.15
2022-12-27T09:24:49.058Z,2.72
2022-12-27T09:25:50.420Z,1.65
2022-12-27T09:26:52.085Z,1.33
2022-12-27T09:27:53.465Z,1.00
2022-12-27T09:28:56.267Z,1.30
2022-12-27T09:29:57.611Z,1.42
2022-12-27T09:30:59.032Z,1.10
2022-12-27T09:32:00.440Z,1.25
2022-12-27T09:33:01.810Z,1.50
2022-12-27T09:34:03.205Z,1.27
2022-12-27T09:35:05.212Z,1.13
2022-12-27T09:36:15.900Z,1.30
2022-12-27T09:37:17.318Z,2.30
2022-12-27T09:38:18.680Z,1.55
2022-12-27T09:39:20.095Z,1.75
2022-12-27T09:40:21.812Z,1.63
2022-12-27T09:42:43.785Z,1.45
2022-12-27T09:43:20.653Z,1.65
2022-12-27T09:44:34.403Z,1.30
2022-12-27T09:45:42.384Z,1.10
2022-12-27T09:47:11.037Z,1.30
2022-12-27T09:48:35.581Z,0.93
2022-12-27T09:49:41.379Z,1.50
2022-12-27T09:50:55.390Z,1.20
2022-12-27T09:52:04.353Z,1.10
2022-12-27T09:53:17.219Z,1.50
2022-12-27T09:54:27.773Z,1.10
2022-12-27T09:55:46.650Z,1.50
2022-12-27T09:57:18.377Z,1.15
2022-12-27T09:58:33.843Z,1.05
2022-12-27T09:59:45.006Z,1.40
2022-12-27T10:00:46.746Z,1.00
2022-12-27T10:01:49.109Z,1.30
2022-12-27T10:02:51.885Z,0.90
2022-12-27T10:03:56.384Z,1.13
2022-12-27T10:06:36.377Z,1.10
2022-12-27T10:07:55.859Z,1.65
2022-12-27T10:09:26.040Z,1.80
2022-12-27T10:10:36.532Z,2.22
2022-12-27T10:12:01.464Z,2.08
2022-12-27T10:13:08.500Z,2.35
2022-12-27T10:14:22.013Z,2.30
2022-12-27T10:15:46.882Z,1.33
2022-12-27T10:17:01.945Z,1.65
2022-12-27T10:18:34.370Z,1.58
2022-12-27T10:19:49.736Z,1.63
2022-12-27T10:21:12.542Z,1.30
2022-12-27T10:22:22.923Z,1.20
2022-12-27T10:23:30.055Z,1.33
2022-12-27T10:25:02.732Z,1.50
2022-12-27T10:26:15.806Z,1.30
2022-12-27T10:27:26.184Z,1.20
2022-12-27T10:28:38.769Z,2.00
2022-12-27T10:29:41.022Z,2.78
2022-12-27T10:30:43.437Z,1.90
2022-12-27T10:31:46.063Z,2.15
2022-12-27T10:32:49.007Z,1.65
2022-12-27T10:33:51.576Z,1.67
2022-12-27T10:34:56.975Z,2.10
2022-12-27T10:35:58.763Z,1.33
2022-12-27T10:37:00.522Z,1.80
2022-12-27T10:38:01.898Z,1.20
2022-12-27T10:39:10.088Z,1.70
2022-12-27T10:40:18.803Z,1.40
2022-12-27T10:41:52.641Z,1.08
2022-12-27T10:42:53.964Z,1.00
2022-12-27T10:43:55.406Z,1.00
2022-12-27T10:45:24.415Z,1.50
2022-12-27T10:46:32.808Z,1.45
2022-12-27T10:47:35.039Z,1.17
2022-12-27T10:49:02.680Z,1.30
2022-12-27T10:50:12.007Z,1.63
2022-12-27T10:51:14.028Z,1.33
2022-12-27T10:52:23.827Z,1.30
2022-12-27T10:53:29.864Z,1.30
2022-12-27T10:54:31.318Z,1.00
2022-12-27T10:55:35.750Z,1.23
2022-12-27T10:56:41.265Z,1.23
2022-12-27T10:57:42.856Z,1.25
2022-12-27T10:58:56.608Z,1.20
2022-12-27T11:00:22.832Z,1.20
2022-12-27T11:01:30.003Z,0.93
2022-12-27T11:02:31.525Z,1.25
2022-12-27T11:03:33.118Z,1.38
2022-12-27T11:04:34.606Z,1.00
2022-12-27T11:05:37.159Z,1.42
2022-12-27T11:06:39.687Z,1.13
2022-12-27T11:07:41.135Z,1.55
2022-12-27T11:08:42.681Z,1.13
2022-12-27T11:09:50.698Z,1.40
2022-12-27T11:11:25.435Z,1.40
2022-12-27T11:12:32.129Z,1.25
2022-12-27T11:13:33.581Z,1.48
2022-12-27T11:14:37.161Z,1.00
2022-12-27T11:15:42.982Z,1.48
2022-12-27T11:16:45.780Z,1.50
2022-12-27T11:17:53.870Z,1.20
2022-12-27T11:18:58.302Z,1.05
2022-12-27T11:20:06.524Z,1.20
2022-12-27T11:21:21.200Z,1.00
2022-12-27T11:22:26.966Z,1.33
2022-12-27T11:23:36.125Z,0.93
2022-12-27T11:24:42.890Z,1.00
2022-12-27T11:25:54.222Z,1.33
2022-12-27T11:27:01.330Z,1.48
2022-12-27T11:28:19.096Z,1.40
2022-12-27T11:29:24.388Z,1.52
2022-12-27T11:30:32.935Z,1.10
2022-12-27T11:31:40.186Z,1.40
2022-12-27T11:32:45.330Z,1.08
2022-12-27T11:33:59.650Z,1.10
2022-12-27T11:35:01.067Z,1.50
2022-12-27T11:36:02.906Z,1.30
2022-12-27T11:37:14.261Z,1.55
2022-12-27T11:38:33.697Z,1.50
2022-12-27T11:40:20.226Z,2.08
2022-12-27T11:41:37.736Z,1.88
2022-12-27T11:42:43.284Z,1.45
2022-12-27T11:43:53.537Z,1.25
2022-12-27T11:45:03.877Z,1.42
2022-12-27T11:46:13.776Z,1.83
2022-12-27T11:47:33.942Z,1.38
2022-12-27T11:48:40.900Z,1.50
2022-12-27T11:49:57.808Z,2.10
2022-12-27T11:51:33.056Z,1.60
2022-12-27T11:52:53.607Z,1.75
2022-12-27T11:54:10.838Z,2.47
2022-12-27T11:55:27.690Z,1.58
2022-12-27T11:56:30.940Z,1.00
2022-12-27T11:58:15.362Z,1.23
2022-12-27T11:59:31.500Z,1.30
2022-12-27T12:00:46.794Z,1.25
2022-12-27T12:02:07.905Z,1.10
2022-12-27T12:03:34.517Z,1.13
2022-12-27T12:04:51.255Z,1.50
2022-12-27T12:06:11.192Z,0.90
2022-12-27T12:07:48.166Z,1.35
2022-12-27T12:09:18.530Z,1.50
2022-12-27T12:10:45.425Z,0.93
2022-12-27T12:11:52.990Z,1.27
2022-12-27T12:13:17.304Z,1.30
2022-12-27T12:14:35.843Z,1.10
2022-12-27T12:16:13.381Z,1.08
2022-12-27T12:17:52.063Z,1.42
2022-12-27T12:19:14.231Z,1.23
2022-12-27T12:20:42.286Z,1.85
2022-12-27T12:22:05.815Z,1.10
2022-12-27T12:23:18.598Z,1.23
2022-12-27T12:24:34.310Z,1.65
2022-12-27T12:26:10.858Z,1.20
2022-12-27T12:27:22.317Z,1.65
2022-12-27T12:30:34.425Z,1.10
2022-12-27T12:31:55.827Z,1.30
2022-12-27T12:33:19.097Z,1.15
2022-12-27T12:35:00.946Z,2.10
2022-12-27T12:36:29.922Z,1.38
2022-12-27T12:37:59.754Z,1.30
2022-12-27T12:39:11.886Z,1.10
2022-12-27T12:40:25.351Z,1.50
2022-12-27T12:42:24.287Z,1.65
2022-12-27T12:43:47.587Z,1.20
2022-12-27T12:45:26.036Z,1.20
2022-12-27T12:46:56.557Z,1.45
2022-12-27T12:48:15.852Z,1.30
2022-12-27T12:49:38.925Z,1.13
2022-12-27T12:50:58.587Z,0.98
2022-12-27T12:52:28.814Z,1.40
2022-12-27T12:53:57.584Z,1.17
2022-12-27T12:55:26.871Z,1.20
2022-12-27T12:56:59.126Z,1.60
2022-12-27T12:58:17.463Z,1.13
2022-12-27T12:59:39.060Z,1.13
2022-12-27T13:01:15.075Z,1.20
2022-12-27T13:02:35.057Z,1.52
2022-12-27T13:04:03.699Z,1.23
2022-12-27T13:05:17.126Z,1.20
2022-12-27T13:07:06.835Z,1.10
2022-12-27T13:08:29.820Z,1.20
2022-12-27T13:09:40.339Z,1.20
2022-12-27T13:11:19.048Z,1.10
2022-12-27T13:12:37.664Z,1.23
2022-12-27T13:14:17.290Z,1.70
2022-12-27T13:15:37.640Z,1.48
2022-12-27T13:16:52.827Z,1.58
2022-12-27T13:27:30.184Z,1.30
